createdAt,value
2018-12-08T00:00:57.656Z,80.23
2018-12-08T00:03:29.216Z,80.21
2018-12-08T00:06:00.391Z,80.06
2018-12-08T00:08:33.749Z,81.71
2018-12-08T00:11:05.267Z,80.63
2018-12-08T00:13:39.468Z,80.20
2018-12-08T00:16:10.796Z,80.18
2018-12-08T00:21:43.640Z,79.88
2018-12-08T00:24:14.479Z,80.04
2018-12-08T00:26:45.522Z,79.87
2018-12-08T00:29:17.203Z,79.65
2018-12-08T00:31:48.142Z,80.19
2018-12-08T00:34:18.959Z,81.60
2018-12-08T00:36:49.980Z,80.22
2018-12-08T00:39:21.679Z,80.86
2018-12-08T00:41:55.280Z,82.78
2018-12-08T00:44:29.047Z,80.90
2018-12-08T00:47:00.175Z,80.44
2018-12-08T00:49:31.891Z,80.26
2018-12-08T00:52:03.931Z,79.43
2018-12-08T00:57:39.303Z,79.84
2018-12-08T01:00:12.926Z,79.69
2018-12-08T01:02:46.728Z,80.32
2018-12-08T01:05:18.164Z,80.14
2018-12-08T01:07:50.032Z,80.30
2018-12-08T01:10:20.784Z,80.45
2018-12-08T01:12:51.875Z,80.20
2018-12-08T01:15:23.619Z,79.79
2018-12-08T01:17:55.139Z,79.85
2018-12-08T01:20:26.060Z,79.84
2018-12-08T01:22:56.915Z,80.27
2018-12-08T01:25:27.732Z,80.38
2018-12-08T01:31:02.447Z,79.99
2018-12-08T01:33:33.256Z,79.04
2018-12-08T01:36:05.187Z,79.80
2018-12-08T01:38:36.827Z,79.58
2018-12-08T01:44:10.510Z,78.25
2018-12-08T01:46:43.948Z,79.28
2018-12-08T01:49:17.625Z,79.51
2018-12-08T01:51:48.838Z,78.32
2018-12-08T01:54:19.790Z,79.69
2018-12-08T01:56:50.703Z,80.28
2018-12-08T01:59:22.383Z,79.22
2018-12-08T02:01:53.511Z,80.65
2018-12-08T02:04:26.859Z,79.02
2018-12-08T02:06:58.235Z,78.67
2018-12-08T02:09:27.947Z,79.92
2018-12-08T02:11:58.861Z,79.23
2018-12-08T02:14:30.656Z,79.58
2018-12-08T02:17:02.456Z,80.43
2018-12-08T02:19:34.269Z,79.11
2018-12-08T02:22:05.343Z,79.53
2018-12-08T02:24:37.120Z,81.11
2018-12-08T02:27:08.199Z,80.01
2018-12-08T02:29:39.050Z,79.36
2018-12-08T02:32:10.020Z,79.32
2018-12-08T02:34:41.007Z,81.06
2018-12-08T02:37:12.195Z,79.82
2018-12-08T02:39:43.715Z,79.72
2018-12-08T02:42:15.726Z,80.92
2018-12-08T02:44:49.768Z,79.61
2018-12-08T02:47:18.922Z,80.92
2018-12-08T02:49:49.798Z,79.28
2018-12-08T02:52:21.615Z,79.65
2018-12-08T02:54:51.442Z,80.15
2018-12-08T02:57:23.184Z,82.13
2018-12-08T02:59:54.826Z,79.72
2018-12-08T03:02:26.436Z,81.37
2018-12-08T03:04:59.862Z,80.55
2018-12-08T03:07:34.274Z,82.08
2018-12-08T03:10:06.271Z,81.29
2018-12-08T03:12:37.742Z,82.29
2018-12-08T03:15:11.339Z,80.61
2018-12-08T03:17:42.476Z,81.33
2018-12-08T03:20:13.526Z,82.01
2018-12-08T03:22:45.135Z,81.00
2018-12-08T03:25:15.967Z,81.03
2018-12-08T03:27:46.852Z,82.92
2018-12-08T03:30:18.517Z,82.13
2018-12-08T03:32:50.276Z,81.21
2018-12-08T03:35:21.324Z,81.02
2018-12-08T03:37:53.058Z,81.93
2018-12-08T03:40:24.705Z,81.30
2018-12-08T03:42:55.633Z,81.08
2018-12-08T03:45:26.446Z,81.80
2018-12-08T03:47:56.159Z,81.26
2018-12-08T03:50:27.315Z,81.22
2018-12-08T03:52:58.182Z,82.09
2018-12-08T04:00:29.282Z,82.63
2018-12-08T04:03:00.923Z,81.81
2018-12-08T04:05:31.847Z,81.23
2018-12-08T04:08:03.592Z,81.00
2018-12-08T04:10:34.552Z,81.17
2018-12-08T04:13:05.327Z,82.03
2018-12-08T04:15:38.770Z,81.00
2018-12-08T04:18:10.087Z,80.16
2018-12-08T04:20:41.296Z,81.47
2018-12-08T04:23:12.064Z,81.04
2018-12-08T04:25:41.683Z,80.89
2018-12-08T04:28:15.028Z,80.04
2018-12-08T04:30:46.487Z,79.93
2018-12-08T04:33:17.497Z,81.75
2018-12-08T04:35:49.305Z,80.26
2018-12-08T04:38:21.062Z,80.99
2018-12-08T04:40:52.150Z,79.80
2018-12-08T04:43:23.582Z,79.69
2018-12-08T04:45:55.399Z,79.94
2018-12-08T04:48:27.199Z,79.71
2018-12-08T04:50:56.882Z,80.29
2018-12-08T04:53:32.959Z,79.54
2018-12-08T04:56:04.947Z,79.70
2018-12-08T04:58:36.461Z,78.72
2018-12-08T05:03:37.023Z,79.46
2018-12-08T05:06:07.859Z,79.48
2018-12-08T05:08:38.688Z,79.87
2018-12-08T05:11:10.503Z,79.04
2018-12-08T05:13:42.155Z,78.48
2018-12-08T05:16:13.907Z,78.16
2018-12-08T05:18:44.903Z,78.59
2018-12-08T05:21:16.662Z,78.88
2018-12-08T05:23:47.568Z,78.69
2018-12-08T05:26:18.552Z,78.54
2018-12-08T05:28:49.458Z,78.33
2018-12-08T05:31:20.297Z,79.15
2018-12-08T05:33:51.299Z,78.93
2018-12-08T05:36:23.201Z,78.28
2018-12-08T05:38:54.827Z,78.46
2018-12-08T05:41:26.659Z,77.84
2018-12-08T05:43:58.151Z,78.29
2018-12-08T05:46:29.160Z,78.61
2018-12-08T05:49:00.009Z,77.39
2018-12-08T05:51:30.827Z,77.80
2018-12-08T05:54:01.770Z,77.60
2018-12-08T05:56:32.619Z,78.36
2018-12-08T05:59:03.902Z,77.99
2018-12-08T06:01:33.648Z,79.57
2018-12-08T06:04:05.534Z,78.52
2018-12-08T06:06:37.294Z,80.90
2018-12-08T06:09:09.022Z,77.35
2018-12-08T06:11:39.806Z,79.06
2018-12-08T06:14:10.842Z,78.65
2018-12-08T06:16:42.652Z,79.11
2018-12-08T06:19:13.600Z,80.04
2018-12-08T06:21:44.662Z,79.40
2018-12-08T06:24:15.456Z,78.53
2018-12-08T06:27:05.859Z,77.99
2018-12-08T06:29:37.100Z,77.34
2018-12-08T06:32:08.122Z,78.19
2018-12-08T06:34:38.935Z,78.61
2018-12-08T06:37:09.748Z,79.18
2018-12-08T06:39:41.308Z,80.13
2018-12-08T06:42:12.155Z,80.25
2018-12-08T06:44:43.091Z,80.24
2018-12-08T06:47:13.809Z,79.91
2018-12-08T06:49:44.587Z,79.30
2018-12-08T06:52:18.116Z,79.72
2018-12-08T06:54:49.593Z,79.20
2018-12-08T06:57:21.367Z,79.47
2018-12-08T06:59:52.287Z,79.01
2018-12-08T07:02:23.271Z,78.66
2018-12-08T07:04:55.188Z,78.32
2018-12-08T07:07:26.671Z,80.05
2018-12-08T07:09:58.275Z,79.67
2018-12-08T07:12:29.295Z,79.38
2018-12-08T07:15:00.187Z,78.47
2018-12-08T07:17:31.023Z,78.99
2018-12-08T07:20:02.471Z,78.01
2018-12-08T07:22:34.129Z,79.04
2018-12-08T07:25:05.444Z,79.31
2018-12-08T07:27:39.703Z,78.05
2018-12-08T07:30:11.375Z,76.95
2018-12-08T07:32:42.973Z,77.28
2018-12-08T07:35:14.528Z,78.53
2018-12-08T07:37:45.632Z,78.08
2018-12-08T07:40:17.457Z,79.03
2018-12-08T07:42:48.998Z,79.30
2018-12-08T07:45:20.175Z,79.37
2018-12-08T07:47:51.927Z,79.98
2018-12-08T07:50:23.800Z,80.35
2018-12-08T07:52:54.745Z,81.04
2018-12-08T07:55:25.554Z,80.62
2018-12-08T07:57:56.486Z,81.45
2018-12-08T08:00:27.615Z,80.64
2018-12-08T08:02:57.415Z,81.53
2018-12-08T08:05:28.470Z,81.00
2018-12-08T08:08:00.096Z,81.18
2018-12-08T08:10:30.927Z,81.54
2018-12-08T08:13:00.677Z,81.16
2018-12-08T08:15:31.731Z,81.48
2018-12-08T08:18:03.401Z,80.90
2018-12-08T08:20:35.123Z,81.04
2018-12-08T08:23:06.436Z,80.88
2018-12-08T08:25:37.875Z,80.90
2018-12-08T08:28:11.295Z,81.30
2018-12-08T08:30:42.558Z,82.01
2018-12-08T08:33:14.164Z,81.40
2018-12-08T08:35:45.971Z,82.03
2018-12-08T08:38:16.952Z,81.72
2018-12-08T08:40:48.780Z,82.41
2018-12-08T08:43:22.154Z,82.23
2018-12-08T08:45:53.403Z,82.61
2018-12-08T08:48:24.259Z,83.19
2018-12-08T08:50:55.335Z,83.29
2018-12-08T08:53:31.799Z,82.88
2018-12-08T08:56:03.780Z,83.25
2018-12-08T08:58:34.691Z,82.98
2018-12-08T09:01:08.042Z,83.06
2018-12-08T09:03:39.151Z,83.12
2018-12-08T09:06:10.273Z,83.43
2018-12-08T09:08:39.974Z,83.75
2018-12-08T09:11:11.636Z,83.40
2018-12-08T09:13:43.453Z,83.48
2018-12-08T09:19:18.591Z,84.09
2018-12-08T09:21:50.219Z,83.17
2018-12-08T09:24:21.843Z,83.35
2018-12-08T09:26:52.791Z,83.06
2018-12-08T09:29:24.511Z,82.61
2018-12-08T09:31:57.640Z,82.81
2018-12-08T09:34:27.112Z,82.59
2018-12-08T09:36:57.977Z,82.59
2018-12-08T09:39:28.971Z,82.22
2018-12-08T09:42:02.335Z,81.26
2018-12-08T09:44:36.064Z,82.60
2018-12-08T09:47:09.658Z,83.10
2018-12-08T09:49:41.102Z,82.72
2018-12-08T09:52:15.473Z,83.16
2018-12-08T09:54:49.434Z,83.17
2018-12-08T09:57:23.096Z,83.68
2018-12-08T09:59:54.355Z,83.97
2018-12-08T10:02:25.299Z,84.34
2018-12-08T10:04:54.995Z,84.38
2018-12-08T10:12:29.203Z,84.93
2018-12-08T10:15:02.915Z,85.05
2018-12-08T10:17:33.845Z,85.66
2018-12-08T10:20:08.243Z,85.90
2018-12-08T10:22:39.354Z,86.24
2018-12-08T10:25:10.279Z,86.47
2018-12-08T10:27:42.751Z,85.70
2018-12-08T10:30:16.258Z,85.72
2018-12-08T10:32:47.520Z,85.72
2018-12-08T10:35:18.359Z,86.18
2018-12-08T10:37:49.224Z,85.97
2018-12-08T10:40:20.536Z,86.06
2018-12-08T10:42:52.123Z,86.01
2018-12-08T10:45:24.041Z,85.95
2018-12-08T10:47:58.436Z,86.68
2018-12-08T10:50:29.623Z,86.05
2018-12-08T10:53:03.029Z,86.10
2018-12-08T10:55:36.755Z,86.30
2018-12-08T10:58:08.166Z,85.96
2018-12-08T11:00:45.595Z,85.80
2018-12-08T11:03:22.583Z,86.57
2018-12-08T11:05:53.690Z,86.32
2018-12-08T11:08:25.315Z,85.84
2018-12-08T11:10:58.634Z,85.99
2018-12-08T11:14:07.179Z,86.14
2018-12-08T11:16:38.735Z,85.95
2018-12-08T11:19:09.888Z,86.08
2018-12-08T11:21:41.903Z,85.84
2018-12-08T11:24:13.552Z,85.89
2018-12-08T11:26:45.303Z,86.23
2018-12-08T11:29:16.183Z,85.42
2018-12-08T11:31:49.692Z,85.72
2018-12-08T11:34:21.019Z,84.85
2018-12-08T11:36:51.943Z,85.90
2018-12-08T11:39:23.060Z,84.86
2018-12-08T11:41:54.631Z,86.05
2018-12-08T11:44:26.678Z,85.25
2018-12-08T11:46:58.751Z,84.37
2018-12-08T11:49:29.756Z,84.57
2018-12-08T11:52:00.627Z,84.30
2018-12-08T11:54:31.901Z,84.23
2018-12-08T11:57:02.882Z,83.44
2018-12-08T11:59:34.683Z,83.54
2018-12-08T12:02:05.907Z,83.18
2018-12-08T12:04:39.431Z,84.07
2018-12-08T12:07:11.303Z,84.45
2018-12-08T12:09:42.058Z,82.97
2018-12-08T12:12:13.125Z,82.50
2018-12-08T12:14:48.387Z,82.03
2018-12-08T12:17:20.111Z,82.38
2018-12-08T12:19:50.947Z,82.20
2018-12-08T12:22:22.147Z,82.11
2018-12-08T12:24:53.131Z,80.76
2018-12-08T12:27:23.900Z,82.62
2018-12-08T12:29:57.451Z,82.48
2018-12-08T12:32:28.747Z,81.65
2018-12-08T12:34:59.644Z,81.98
2018-12-08T12:37:31.221Z,82.15
2018-12-08T12:40:03.676Z,81.33
2018-12-08T12:42:34.899Z,80.87
2018-12-08T12:45:06.194Z,81.85
2018-12-08T12:47:37.933Z,80.70
2018-12-08T12:50:09.390Z,81.61
2018-12-08T12:52:41.383Z,79.81
2018-12-08T12:55:12.974Z,80.74
2018-12-08T12:57:42.194Z,81.87
2018-12-08T13:00:13.619Z,80.34
2018-12-08T13:02:45.063Z,80.71
2018-12-08T13:05:16.022Z,81.24
2018-12-08T13:07:49.530Z,80.46
2018-12-08T13:10:21.111Z,79.44
2018-12-08T13:12:52.993Z,80.32
2018-12-08T13:15:23.826Z,79.11
2018-12-08T13:17:55.020Z,80.53
2018-12-08T13:20:25.995Z,78.88
2018-12-08T13:22:57.103Z,78.72
2018-12-08T13:25:28.370Z,81.01
2018-12-08T13:27:59.539Z,78.24
2018-12-08T13:30:30.636Z,77.92
2018-12-08T13:33:01.720Z,78.68
2018-12-08T13:35:53.187Z,79.38
2018-12-08T13:38:23.472Z,78.27
2018-12-08T13:40:55.115Z,77.59
2018-12-08T13:43:25.998Z,77.74
2018-12-08T13:45:57.013Z,78.96
2018-12-08T13:48:29.683Z,78.38
2018-12-08T13:51:01.239Z,77.97
2018-12-08T13:53:36.919Z,79.93
2018-12-08T13:56:07.454Z,78.67
2018-12-08T13:58:38.347Z,78.56
2018-12-08T14:01:09.503Z,77.35
2018-12-08T14:03:42.880Z,77.73
2018-12-08T14:06:14.243Z,77.95
2018-12-08T14:08:48.983Z,79.10
2018-12-08T14:11:22.843Z,77.46
2018-12-08T14:13:54.174Z,78.15
2018-12-08T14:16:25.137Z,79.20
2018-12-08T14:18:56.037Z,78.77
2018-12-08T14:21:27.863Z,76.71
2018-12-08T14:23:59.087Z,77.04
2018-12-08T14:26:30.183Z,77.43
2018-12-08T14:29:01.227Z,77.74
2018-12-08T14:31:32.403Z,77.11
2018-12-08T14:34:04.107Z,77.02
2018-12-08T14:36:35.049Z,77.83
2018-12-08T14:39:08.464Z,78.44
2018-12-08T14:41:40.065Z,76.89
2018-12-08T14:44:10.871Z,78.28
2018-12-08T14:46:45.134Z,77.92
2018-12-08T14:49:16.867Z,78.77
2018-12-08T14:51:47.799Z,79.52
2018-12-08T14:54:18.753Z,80.77
2018-12-08T14:56:49.655Z,80.15
2018-12-08T14:59:20.751Z,80.39
2018-12-08T15:01:51.837Z,80.69
2018-12-08T15:04:22.827Z,80.50
2018-12-08T15:06:56.692Z,81.58
2018-12-08T15:09:27.840Z,80.53
2018-12-08T15:11:59.143Z,80.54
2018-12-08T15:14:32.567Z,80.94
2018-12-08T15:17:04.303Z,80.66
2018-12-08T15:19:35.388Z,81.25
2018-12-08T15:22:06.323Z,80.72
2018-12-08T15:24:37.388Z,81.10
2018-12-08T15:27:08.631Z,82.29
2018-12-08T15:29:40.226Z,81.57
2018-12-08T15:32:11.294Z,82.07
2018-12-08T15:34:42.467Z,81.26
2018-12-08T15:37:13.674Z,81.65
2018-12-08T15:39:44.651Z,80.88
2018-12-08T15:42:15.604Z,81.80
2018-12-08T15:44:46.999Z,80.98
2018-12-08T15:47:18.371Z,80.17
2018-12-08T15:49:48.288Z,80.97
2018-12-08T15:52:19.332Z,81.50
2018-12-08T15:54:50.540Z,80.77
2018-12-08T15:57:22.231Z,81.17
2018-12-08T15:59:53.295Z,81.46
2018-12-08T16:02:24.548Z,81.82
2018-12-08T16:04:55.549Z,81.70
2018-12-08T16:07:26.764Z,82.01
2018-12-08T16:09:57.920Z,81.52
2018-12-08T16:12:29.016Z,81.53
2018-12-08T16:15:00.131Z,82.53
2018-12-08T16:17:31.143Z,82.75
2018-12-08T16:20:02.344Z,83.15
2018-12-08T16:22:33.211Z,83.10
2018-12-08T16:25:04.778Z,83.10
2018-12-08T16:27:36.437Z,82.98
2018-12-08T16:30:08.698Z,83.25
2018-12-08T16:32:40.118Z,83.54
2018-12-08T16:35:12.134Z,83.36
2018-12-08T16:37:43.155Z,83.59
2018-12-08T16:40:16.701Z,83.42
2018-12-08T16:42:46.386Z,83.00
2018-12-08T16:45:18.380Z,83.50
2018-12-08T16:47:49.399Z,83.46
2018-12-08T16:50:20.451Z,82.84
2018-12-08T16:52:51.552Z,83.16
2018-12-08T16:55:22.814Z,83.51
2018-12-08T16:57:53.991Z,83.65
2018-12-08T17:00:25.167Z,83.72
2018-12-08T17:02:55.999Z,84.43
2018-12-08T17:05:29.417Z,83.89
2018-12-08T17:08:01.215Z,84.44
2018-12-08T17:10:32.106Z,84.51
2018-12-08T17:13:05.574Z,84.78
2018-12-08T17:18:08.675Z,84.78
2018-12-08T17:20:39.864Z,84.84
2018-12-08T17:23:10.672Z,85.36
2018-12-08T17:25:41.978Z,85.71
2018-12-08T17:28:12.961Z,85.16
2018-12-08T17:30:44.103Z,85.25
2018-12-08T17:33:14.950Z,85.26
2018-12-08T17:35:45.970Z,85.34
2018-12-08T17:38:19.703Z,85.47
2018-12-08T17:40:51.232Z,85.53
2018-12-08T17:43:22.303Z,85.22
2018-12-08T17:45:53.426Z,85.14
2018-12-08T17:48:25.238Z,85.28
2018-12-08T17:51:00.690Z,85.46
2018-12-08T17:53:32.368Z,85.49
2018-12-08T17:56:03.622Z,85.67
2018-12-08T17:58:35.451Z,85.73
2018-12-08T18:01:06.433Z,86.10
2018-12-08T18:03:36.481Z,86.20
2018-12-08T18:06:08.268Z,85.72
2018-12-08T18:08:39.340Z,86.11
2018-12-08T18:11:10.446Z,86.35
2018-12-08T18:13:41.643Z,86.24
2018-12-08T18:21:15.967Z,86.31
2018-12-08T18:23:46.843Z,86.13
2018-12-08T18:26:18.002Z,86.43
2018-12-08T18:28:49.538Z,85.98
2018-12-08T18:31:20.705Z,86.07
2018-12-08T18:33:52.532Z,85.83
2018-12-08T18:36:24.278Z,85.88
2018-12-08T18:38:57.795Z,86.02
2018-12-08T18:41:29.610Z,86.12
2018-12-08T18:44:01.239Z,86.02
2018-12-08T18:46:32.548Z,86.22
2018-12-08T18:49:04.259Z,85.71
2018-12-08T18:51:35.295Z,86.22
2018-12-08T18:54:06.639Z,86.13
2018-12-08T18:56:37.817Z,85.98
2018-12-08T18:59:11.438Z,86.42
2018-12-08T19:01:42.756Z,86.92
2018-12-08T19:04:14.116Z,86.59
2018-12-08T19:06:45.967Z,86.48
2018-12-08T19:09:17.035Z,86.71
2018-12-08T19:11:50.856Z,86.61
2018-12-08T19:14:22.043Z,87.52
2018-12-08T19:16:53.235Z,86.78
2018-12-08T19:19:26.788Z,86.84
2018-12-08T19:24:30.288Z,87.58
2018-12-08T19:27:01.219Z,87.57
2018-12-08T19:29:32.313Z,87.78
2018-12-08T19:32:03.555Z,88.46
2018-12-08T19:34:34.570Z,88.34
2018-12-08T19:37:05.509Z,88.01
2018-12-08T19:39:39.219Z,87.97
2018-12-08T19:42:10.700Z,88.02
2018-12-08T19:44:41.833Z,88.50
2018-12-08T19:47:13.450Z,88.36
2018-12-08T19:49:46.897Z,88.32
2018-12-08T19:52:18.442Z,88.70
2018-12-08T19:54:49.531Z,88.82
2018-12-08T19:57:20.756Z,88.44
2018-12-08T19:59:52.470Z,88.66
2018-12-08T20:02:23.608Z,88.87
2018-12-08T20:04:57.458Z,88.71
2018-12-08T20:07:28.794Z,89.24
2018-12-08T20:10:01.260Z,88.67
2018-12-08T20:12:32.685Z,89.00
2018-12-08T20:15:07.764Z,88.93
2018-12-08T20:17:39.564Z,89.05
2018-12-08T20:20:10.711Z,89.27
2018-12-08T20:25:14.061Z,89.58
2018-12-08T20:27:45.707Z,88.98
2018-12-08T20:30:16.537Z,89.48
2018-12-08T20:32:47.472Z,89.40
2018-12-08T20:35:19.055Z,89.58
2018-12-08T20:37:48.599Z,89.74
2018-12-08T20:40:19.562Z,89.63
2018-12-08T20:42:50.642Z,89.54
2018-12-08T20:45:22.300Z,89.45
2018-12-08T20:47:54.064Z,89.40
2018-12-08T20:50:25.113Z,89.63
2018-12-08T20:52:56.858Z,89.58
2018-12-08T20:55:28.287Z,89.67
2018-12-08T20:58:00.071Z,89.94
2018-12-08T21:00:30.888Z,90.03
2018-12-08T21:03:02.901Z,90.07
2018-12-08T21:05:34.034Z,89.72
2018-12-08T21:08:05.710Z,90.13
2018-12-08T21:10:39.387Z,90.64
2018-12-08T21:13:08.833Z,89.98
2018-12-08T21:15:39.776Z,90.29
2018-12-08T21:18:11.564Z,89.99
2018-12-08T21:20:42.638Z,90.26
2018-12-08T21:23:13.899Z,90.08
2018-12-08T21:28:16.791Z,90.58
2018-12-08T21:30:47.688Z,90.25
2018-12-08T21:33:18.659Z,89.97
2018-12-08T21:35:49.913Z,90.16
2018-12-08T21:38:20.820Z,90.11
2018-12-08T21:40:52.225Z,90.40
2018-12-08T21:43:22.961Z,90.31
2018-12-08T21:45:54.053Z,90.48
2018-12-08T21:48:25.090Z,90.26
2018-12-08T21:50:56.857Z,90.34
2018-12-08T21:53:28.590Z,90.28
2018-12-08T21:55:59.942Z,90.33
2018-12-08T21:58:33.308Z,90.86
2018-12-08T22:01:05.099Z,90.74
2018-12-08T22:03:36.815Z,90.53
2018-12-08T22:06:08.019Z,90.82
2018-12-08T22:08:39.715Z,90.80
2018-12-08T22:11:10.963Z,91.35
2018-12-08T22:13:41.976Z,90.97
2018-12-08T22:16:12.868Z,90.83
2018-12-08T22:18:43.819Z,90.93
2018-12-08T22:21:14.736Z,91.09
2018-12-08T22:23:46.496Z,90.82
2018-12-08T22:26:17.999Z,91.12
2018-12-08T22:28:48.720Z,91.12
2018-12-08T22:31:19.859Z,91.15
2018-12-08T22:33:50.839Z,91.04
2018-12-08T22:36:21.810Z,91.04
2018-12-08T22:38:55.318Z,91.38
2018-12-08T22:41:26.666Z,91.45
2018-12-08T22:43:58.055Z,91.07
2018-12-08T22:46:29.334Z,91.27
2018-12-08T22:49:00.264Z,91.50
2018-12-08T22:51:31.193Z,91.80
2018-12-08T22:54:00.831Z,91.72
2018-12-08T22:56:31.871Z,91.35
2018-12-08T22:59:02.707Z,91.37
2018-12-08T23:01:33.827Z,90.99
2018-12-08T23:04:05.110Z,91.62
2018-12-08T23:06:36.118Z,90.85
2018-12-08T23:09:07.387Z,91.48
2018-12-08T23:11:38.913Z,91.54
2018-12-08T23:14:10.127Z,91.26
2018-12-08T23:16:43.943Z,91.41
2018-12-08T23:19:15.103Z,91.17
2018-12-08T23:21:46.186Z,91.31
2018-12-08T23:24:17.841Z,91.47
2018-12-08T23:26:49.551Z,91.42
2018-12-08T23:29:20.700Z,91.84
2018-12-08T23:31:51.597Z,91.81
2018-12-08T23:34:25.239Z,91.45
2018-12-08T23:36:59.183Z,91.11
2018-12-08T23:39:30.308Z,91.10
2018-12-08T23:42:01.708Z,91.13
2018-12-08T23:44:33.411Z,90.97
2018-12-08T23:47:04.338Z,90.84
2018-12-08T23:49:35.463Z,90.80
2018-12-08T23:52:06.500Z,90.77
2018-12-08T23:54:37.452Z,91.36
2018-12-08T23:57:11.176Z,91.24
2018-12-08T23:59:42.250Z,90.98
